11-12 Girls

11-12 Girls 3000 Meter Run					
Place	Bib	Name	Team	Time	Points
1	1616	Lauren Ping	08 30-Unattached	10:46.4	
					
2	1989	Brooke Wilson	10 Parker Panthers	10:48.7	1
					
3	1782	Savannah Ames	10 Cougar Track Club	10:54.9	2
					
4	1978	Mckenna Mazeski	10 Parker Panthers	10:58.5	3
					
5	1905	Bethany Michalak	10 Kokopelli Racing Team	11:02.5	
					
6	2942	Mackenzie Browne	15 Lions Track Club	11:07.1	
					
7	48	Alissa Graham	01 Club44	11:14.1	
					
8	2996	Arielle Mckenzie	15 Pacific Coast Shock Waves	11:15.2	
					
9	1971	Suvina Heidt	10 Parker Panthers	11:16.2	4
					
10	2226	Samantha Humphries	12 North Texas Road Warriors	11:17.3	
					
11	1386	Sophia Kennedy	07 Carmel Distance Project	11:19.8	5
					
12	2916	Sherlyn Gomez	15 Lightning Youth Running Clu	11:24.8	6
					
13	2225	Nicole Humphries	12 North Texas Road Warriors	11:26.1	
					
14	2920	Michelle Huerta	15 Lightning Youth Running Clu	11:27.4	7
					
15	244	Juliette Salazar	01 New York Starz Track	11:29.4	8
					
16	1966	Alexandra Collins	10 Parker Panthers	11:29.9	9
					
17	657	Vanessa Alder	03 Franklin Elite Athletics Tr	11:30.4	
					
18	3150	Naima Salazar	15 Valley United Track Club A	11:31.0	10
					
19	1227	Allison Manley	05 Northeast Striders	11:31.1	
					
20	2420	Ava Borsheim	13 Federal Way Track	11:31.2	
					
21	2292	Margaret Thompson	12 SpeedKIDZ Elite	11:32.0	
					
22	632	Marissa Bosland	03 Fit 180 Athletics A	11:33.3	11
					
23	2369	Natalie Jack	13 Bowerman Track	11:36.2	12
					
24	1797	Leah Futey	10 Cougar Track Club	11:37.0	13
					
25	1362	Lauren Klem	07 16-Unattached	11:37.8	
					
26	3	Hadley Mahoney	01 01-Unattached	11:39.0	
					
27	490	Marlee Kwasnica	02 Nittany Track and Field	11:40.9	
					
28	1778	Ava Mitchell	10 Colorado Coyotes	11:42.9	14
					
29	2757	Grace Dunham	14 Oak Hill Racing	11:43.8	
					
30	3149	Lindsey Ramirez	15 Valley United Track Club A	11:43.8	15
					
31	73	Rylee Davis	01 Delmar Track and Field	11:45.5	
					
32	1773	Mia Prok	10 Boulder Mountain Warriors	11:47.3	
					
33	758	Kaitlyn Obremski	03 Without Limits	11:47.9	
					
34	1984	Gracie Prosceno	10 Parker Panthers	11:49.1	16
					
35	1774	Ava Escorcia	10 Colorado Coyotes	11:50.3	17
					
36	1550	Morgan Mackie	07 Sauganash Striders	11:50.6	
					
37	631	Charlotte Bell	03 Fit 180 Athletics A	11:52.7	18
					
38	3214	Rory Claussen	16 14-Unattached	11:52.9	
					
39	3091	Anastasia Snodgrass	15 South Orange County Wildcat	11:53.2	
					
40	1375	Tatum David	07 21-Unattached	11:53.4	
					
41	2004	Sarah De La Cerda	10 Penguin Track	11:54.3	19
					
42	2395	Naya Wrenn	13 Bowerman Track	11:54.5	20
					
43	1381	Macie DeLillo	07 Carmel Distance Project	11:54.5	21
					
44	2009	Elizabeth McQuitty	10 Penguin Track	11:55.0	22
					
45	2798	Simone DeBerry	14 Sacramento Elite	11:55.4	
					
46	1079	Taylor Tarpley	04 Peachtree City Flash	11:55.4	
					
47	2858	Brooke Adams	15 Equalizers Track	11:55.5	23
					
48	1842	Ivy Estrada	10 El Paso Speed	11:56.2	
					
49	1115	Jais Ward	04 The Storm Track Club	11:56.3	24
					
50	2382	Kate Peters	13 Bowerman Track	11:56.7	25
					
51	2747	Mia Rueb	14 Mount Diablo Heat	11:57.0	
					
52	3230	Lauren McGaffic	16 14-Unattached	11:57.3	
					
53	1391	Cara Naas	07 Carmel Distance Project	11:58.0	26
					
54	2616	Caroline Mendyk	14 46-Unattached	11:58.1	
					
55	3056	Allura Markow	15 So Cal Roadrunners	11:58.1	
					
56	2353	Maggie Bennett	13 Bowerman Track	11:58.6	27
					
57	1881	Jade Allen	10 Kokopelli Racing Team	11:58.7	
					
58	1967	Lila Crowley	10 Parker Panthers	11:58.8	28
					
59	1779	Addison Price	10 Colorado Coyotes	12:00.5	29
					
60	2681	Tauren Mitchell	14 Los Gatos	12:00.6	30
					
61	3090	Talia Richland	15 South Orange County Wildcat	12:01.2	
					
62	2823	Kendall Memoly	15 33-Unattached	12:01.8	
					
63	1948	Kendall Black	10 NX Level Track	12:01.9	31
					
64	2373	Ella McGillis	13 Bowerman Track	12:02.1	32
					
65	2934	Nataly Robles	15 Lightning Youth Running Clu	12:02.8	33
					
66	139	Emily Bush	01 Kinetic Running	12:02.8	
					
67	3126	Reese Gentry	15 Valley United Track Club A	12:03.2	34
					
68	2075	Ava Coccaro	11 Park City Running Club Utah	12:03.6	
					
69	593	Alexa Francis	03 Durham Striders Track	12:04.2	
					
70	240	Brianna Carter	01 New York Starz Track	12:04.8	35
					
71	763	Ruth DeChamplain	04 45-Unattached	12:05.0	
					
72	1164	Gabriella Warnick	04 Walton Youth Track	12:05.2	36
					
73	2622	Rylee Guinn	14 Delta Limitless	12:05.4	
					
74	2492	Maisie McManus	13 Rain City Flyers	12:06.2	
					
75	2611	Rebekah Skandera	14 38-Unattached	12:06.9	
					
76	130	Kate Burrus	01 Haverhill Elite Track Club	12:07.3	
					
77	3136	Angelina Lopez	15 Valley United Track Club A	12:07.4	37
					
78	2351	Amalie Beil	13 Bowerman Track	12:08.5	38
					
79	939	Morgan Grace Sheffield	04 Great Strides	12:08.6	39
					
80	305	Isabelle Gelzhiser	01 Rumford Road Runners	12:08.7	40
					
81	1006	Addison Tilley	04 Marietta Track Club	12:09.2	41
					
82	242	Rihanna Defreitas	01 New York Starz Track	12:10.0	42
					
83	237	Leilani Gibson	01 New Haven Age Group	12:10.0	
					
84	104	Masho Primmer	01 Granite State Flash	12:11.1	43
					
85	828	Claire Shelton	04 Alpha Crush Running Club	12:11.1	
					
86	2628	Makena Weberski	14 Diablo Valley Track & Field	12:11.3	
					
87	2833	Jie Yi Denise Chen	15 Chino Hills Flash	12:11.4	
					
88	3097	Joelle Upshur	15 Temecula Valley Time Machin	12:11.6	
					
89	303	Margret Bush	01 Rumford Road Runners	12:12.0	44
					
90	1952	Landen LeBlond	10 NX Level Track	12:12.1	45
					
91	771	Heidi Heppner	04 45-Unattached	12:12.5	
					
92	2683	Sophie Tau	14 Los Gatos	12:13.0	46
					
93	1790	Cecilia Campos	10 Cougar Track Club	12:13.4	47
					
94	3068	Gabriella Romero	15 So Cal Roadrunners	12:14.5	
					
95	1861	Mairead Kelly	10 Flagstaff Roam	12:14.9	
					
96	2618	Destinee Salinas	14 Coastside Youth Running Clu	12:15.0	
					
97	246	Isabel Slippen	01 New York Starz Track	12:15.0	48
					
98	2411	Ainsley Herron	13 Cascade Striders	12:15.6	
					
99	2875	Melanie Pakingan	15 Equalizers Track	12:15.7	49
					
100	1116	Abigail White	04 The Storm Track Club	12:16.0	50
					
101	391	Arianne Bilodeau	02 07-Unattached	12:16.2	
					
102	517	Ava Wilmot	02 Shore Athletic	12:16.5	
					
103	1791	Sophie Chadwick	10 Cougar Track Club	12:18.1	51
					
104	2539	Olive Clark	13 Sun City	12:18.4	
					
105	388	Faith Skowvron	02 04-Unattached	12:18.5	
					
106	2682	Rafaela Putnam	14 Los Gatos	12:18.5	52
					
107	135	Blane McElroy	01 Heads Up Running	12:18.8	
					
108	755	Madison Marco	03 Waxhaw Track	12:19.4	
					
109	1974	Zoey Lenth	10 Parker Panthers	12:19.5	53
					
110	307	Kaia Woolfe	01 Rumford Road Runners	12:21.1	54
					
111	3202	Ryan Vasquez	15 Valley United Track Club B	12:21.6	55
					
112	2362	Erin Cosgrove	13 Bowerman Track	12:21.9	56
					
113	107	Stephanie Svendsen	01 Granite State Flash	12:22.3	57
					
114	1132	Daniela Delgado	04 Walton Youth Track	12:22.3	58
					
115	1957	Rylee Rafferty	10 NX Level Track	12:22.5	59
					
116	374	Ellie Shea	01 Waltham Track	12:23.0	60
					
117	930	Emma Culbreth	04 Great Strides	12:23.1	61
					
118	640	Justine Preisano	03 Fit 180 Athletics A	12:23.3	62
					
119	634	Maureen Garrity	03 Fit 180 Athletics A	12:23.6	63
					
120	556	Laney Duncan	03 13-Unattached	12:24.1	
					
121	2578	Jane Hmura	13 Teammates Running Club	12:24.6	
					
122	563	Madeline Yancey	03 13-Unattached	12:24.7	
					
123	663	Lauren Wimberly	03 Franklin Elite Athletics Tr	12:25.7	
					
124	2626	Grace Reed	14 Diablo Valley Track & Field	12:26.1	
					
125	408	Elizabeth Baroody	02 Auburn Y Pulsars	12:26.2	
					
126	2520	Megan Kolenski	13 Speed Unlimited	12:26.6	
					
127	103	Ashereka Primmer	01 Granite State Flash	12:27.6	64
					
128	1859	MorningRain Honani	10 Flagstaff Roam	12:28.3	
					
129	1762	Kendall Downing	10 Albuquerque Athletics Track	12:28.3	
					
130	2928	Maribel Perez	15 Lightning Youth Running Clu	12:28.5	65
					
131	3269	Noelle Vu	16 Central Florida Gliders Tra	12:29.0	66
					
132	1947	Kalyn Black	10 NX Level Track	12:29.2	67
					
133	1111	Munirah Gordon	04 The Storm Track Club	12:30.1	68
					
134	1802	Sophia Lopez	10 Cougar Track Club	12:30.8	69
					
135	1173	Josie Dages	05 17-Unattached	12:31.7	
					
136	1831	Clarissa Morales	10 El Paso Flames	12:31.8	
					
137	1465	Emma Callahan	07 Dirty South XC	12:32.1	
					
138	1109	Madelyn Gomez	04 The Storm Track Club	12:32.4	70
					
139	2590	Morgan Thompson	13 Tri City Thunder	12:32.7	
					
140	2409	Alivia Evans	13 Cascade Striders	12:32.8	
					
141	3224	Samantha Kavanagh	16 14-Unattached	12:32.9	
					
142	638	Valeria Mas	03 Fit 180 Athletics A	12:32.9	71
					
143	2861	Ashley Cheng	15 Equalizers Track	12:33.6	72
					
144	1893	Jessica Derickson	10 Kokopelli Racing Team	12:34.4	
					
145	2714	Delilah Cervantes	14 McFarland Track	12:34.7	73
					
146	1781	Sydney Sheldon	10 Colorado Coyotes	12:35.1	74
					
147	445	Julia Zalenski	02 Get Fit Families	12:35.4	
					
148	2718	Demari Diaz	14 McFarland Track	12:36.3	75
					
149	1226	Mary Kathryn French	05 Northeast Striders	12:36.3	
					
150	1196	Liliana Lehnst	05 19-Unattached	12:36.6	
					
151	3156	Jordyn Toon	15 Valley United Track Club A	12:36.7	76
					
152	3247	Mia Taylor	16 14-Unattached	12:37.1	
					
153	1999	Emalie Bradley	10 Penguin Track	12:37.6	77
					
154	3096	Laura Shoaf	15 Temecula Valley Time Machin	12:38.9	
					
155	1466	Lily Myers	07 Dirty South XC	12:39.5	
					
156	3272	Daniela Alvarez	16 Miami Elite Track	12:39.6	
					
157	3072	Dhannasshy Sanchez	15 So Cal Roadrunners	12:40.5	
					
158	2638	Roxana Fernandez	14 Fast Track Lamont	12:40.7	
					
159	183	Lauren Long	01 Nashua Pal Striders	12:40.9	
					
160	592	Lilly Clemmons	03 Durham Striders Track	12:41.0	
					
161	1359	Veronica Hargrave	07 16-Unattached	12:42.7	
					
162	854	Lauren Fath	04 Creekview Youth Track	12:42.8	
					
163	997	Gabrielle Comsudes	04 Marietta Track Club	12:43.2	78
					
164	3303	Ella Stone	04 45-Unattached	12:43.8	
					
165	302	Mia Barrus	01 Rumford Road Runners	12:44.5	79
					
166	38	Alyssa Sigfridson	01 Casco Bay Endurance	12:44.7	
					
167	99	Shaylee Murdough	01 Granite State Flash	12:44.8	80
					
168	2461	Jenny Elliott	13 North Idaho Track & Field	12:45.2	81
					
169	1435	Sydney Morlok	07 Columbus Running	12:45.8	82
					
170	1134	Emery Dembski	04 Walton Youth Track	12:46.2	83
					
171	949	Janai Jones	04 Jackrabbit Track & Field Cl	12:46.6	
					
172	1973	Madison Krom	10 Parker Panthers	12:47.0	
					
173	840	Ruby Little	04 Atlanta Track Club	12:47.1	
					
174	2012	Annahi Molina	10 Penguin Track	12:47.3	84
					
175	95	Allyson Martiniello	01 Granite State Flash	12:47.4	85
					
176	2832	Aariana Amezcua	15 Chino Hills Flash	12:47.4	
					
177	1514	Rachel Flick	07 Northside Saints	12:47.7	
					
178	2711	Lluvi Aguilar	14 McFarland Track	12:47.9	86
					
179	3159	Zaida Velazquez	15 Valley United Track Club A	12:48.2	87
					
180	1387	Jasmine Klopstad	07 Carmel Distance Project	12:48.6	88
					
181	2837	Kennedy Duralde	15 Chino Hills Flash	12:48.9	
					
182	2722	Melina Gonzalez	14 McFarland Track	12:49.1	89
					
183	1955	Sara Ortiz	10 NX Level Track	12:49.1	90
					
184	3129	Kamryn Grossman	15 Valley United Track Club A	12:49.8	91
					
185	2175	Ola Jalal	12 Family Point Speed	12:50.0	92
					
186	2751	Ashley Yee	14 Mount Diablo Heat	12:50.3	
					
187	2161	Amelia Bommer	12 Family Point Speed	12:50.4	93
					
188	1786	Gabriella Barton	10 Cougar Track Club	12:50.7	94
					
189	3274	Valeria Castillo	16 Miami Elite Track	12:51.1	
					
190	2905	Genesis Ayala	15 Lightning Youth Running Clu	12:51.4	95
					
191	2276	Micaela Villarreal	12 San Antonio Swift Track Clu	12:51.6	
					
192	1780	Sophia Sheldon	10 Colorado Coyotes	12:51.9	96
					
193	2460	Emersen Duncan	13 North Idaho Track & Field	12:53.1	97
					
194	2322	Madison Morgan	12 Track Houston Youth Track	12:53.1	98
					
195	454	Veronica Gula	02 Hershey Blaze	12:54.3	
					
196	92	Haley Kavanagh	01 Granite State Flash	12:54.3	99
					
197	2726	Julissa Ramirez	14 McFarland Track	12:54.7	100
					
198	2473	Zara Munyer	13 North Idaho Track & Field	12:55.3	101
					
199	367	Audrey Fitzpatrick	01 Waltham Track	12:55.6	102
					
200	3186	Jenna Moutes	15 Valley United Track Club B	12:55.9	103
					
201	2677	Caelan Gilliam	14 Los Gatos	12:56.0	104
					
202	512	Mary Eagle	02 River City Elite Track	12:56.5	
					
203	2430	Evalin Acosta	13 JC Spirit Multi Event	12:56.6	105
					
204	647	Taylor Fenton	03 Fit 180 Athletics B	12:56.8	
					
205	2873	Elizabeth Odom	15 Equalizers Track	12:57.0	106
					
206	3267	Jolynn Rodriguez	16 Central Florida Gliders Tra	12:57.6	107
					
207	534	Ryleigh Marks	02 Trojan Track	12:58.2	
					
208	3210	Alyssa Benson	16 14-Unattached	12:59.3	
					
209	1799	Isyss Ingram	10 Cougar Track Club	12:59.7	108
					
210	2102	Breanne Kennard	11 Race Cats	13:00.0	
					
211	909	Abbie Kallbreier	04 Etowah Youth Track	13:00.4	
					
212	538	Claire Flagg	02 Westfield Area Y Flyers	13:01.3	
					
213	372	Erin Moran	01 Waltham Track	13:01.4	109
					
214	3188	Jocelyn Pacheco	15 Valley United Track Club B	13:01.5	110
					
215	1804	Maya Macias	10 Cougar Track Club	13:02.0	
					
216	2457	Ara Clark	13 North Idaho Track & Field	13:02.4	111
					
217	378	Delaney Woolbert	01 Waltham Track	13:02.5	112
					
218	2866	Sabrina Go	15 Equalizers Track	13:02.6	113
					
219	464	Addie Parson	02 Juniata Valley Striders	13:03.7	
					
220	1104	Stella Waites	04 Sequoyah Youth Track	13:04.2	
					
221	224	Emma Peterson	01 NC Surge - Advanced Running	13:04.6	
					
222	2229	Kaiya English	12 Northwest Flyers Track	13:04.7	
					
223	1417	Leslie Austin	07 Columbus Running	13:05.3	114
					
224	662	April Scepurek	03 Franklin Elite Athletics Tr	13:06.3	
					
225	2914	Perla Duran	15 Lightning Youth Running Clu	13:07.1	115
					
226	436	Abby Kreber	02 Get Fit Families	13:07.2	
					
227	2938	Dayanara Solis	15 Lightning Youth Running Clu	13:07.6	116
					
228	2868	Emily Howard	15 Equalizers Track	13:08.3	117
					
229	2118	Sofia Guiot	12 25-Unattached	13:08.3	
					
230	86	Tessa Brown	01 Granite State Flash	13:09.1	118
					
231	3226	Elisabeth Lambo	16 14-Unattached	13:09.2	
					
232	262	Charlotte Murphy	01 Nutmeg Striders	13:09.3	
					
233	2077	Madeline McHenry	11 Park City Running Club Utah	13:09.4	
					
234	3184	Katelyn Matarese	15 Valley United Track Club B	13:10.6	119
					
235	1564	Vivienne Siefker	07 South Central Indiana Runni	13:12.0	120
					
236	2879	Tressa Van Raes	15 Equalizers Track	13:12.2	121
					
237	1562	Page Mora	07 South Central Indiana Runni	13:12.3	122
					
238	3262	Kayla McCarthy	16 Central Florida Gliders Tra	13:12.4	123
					
239	1110	Abigail Gopp	04 The Storm Track Club	13:12.6	124
					
240	2566	Myana Stock	13 Sun City	13:13.5	
					
241	371	Shannon McCarthy	01 Waltham Track	13:15.0	125
					
242	2679	Katherine Herron	14 Los Gatos	13:15.5	126
					
243	2162	Isa Carles	12 Family Point Speed	13:16.3	127
					
244	644	Emily Wood	03 Fit 180 Athletics A	13:17.2	128
					
245	2436	Matilyn Richardson	13 JC Spirit Multi Event	13:17.5	129
					
246	1734	Katelyn Clouston	09 Triple Threat Racing	13:17.7	
					
247	3078	Tessa Anderson	15 South Orange County Wildcat	13:18.0	
					
248	945	Sydney Augmon	04 Jackrabbit Track & Field Cl	13:18.2	
					
249	1395	Kara Wenzler	07 Carmel Distance Project	13:18.3	130
					
250	2770	Jennifer Cruden	14 Peninsula Flyers	13:19.1	
					
251	1676	Whitley Terry	09 23-Unattached	13:19.3	
					
252	1449	Kyleigh Wolf	07 Columbus Running	13:19.4	131
					
253	76	Reagan Hoy	01 Elm City	13:20.1	
					
254	2117	Amelia Anderson	12 25-Unattached	13:20.2	
					
255	1608	Lydia Vander Meer	08 20-Unattached	13:20.4	
					
256	2756	Stella Davenport	14 Oak Hill Racing	13:21.0	
					
257	420	Emily Lossman	02 Crimson Knights	13:21.6	
					
258	2300	Astrid Allen	12 Track Houston Youth Track	13:21.7	132
					
259	670	Zoe Anderson	03 Harrisburg Runners	13:21.9	
					
260	929	Riley Chichester	04 Great Strides	13:22.3	133
					
261	3212	Jaellene Burgess	16 14-Unattached	13:22.6	
					
262	2378	Claire Oetker	13 Bowerman Track	13:22.9	
					
263	3125	Carolina Garcia	15 Valley United Track Club A	13:23.0	
					
264	2016	Abby Wubben	10 Penguin Track	13:23.9	134
					
265	1004	Brooklyn Mcvicker	04 Marietta Track Club	13:25.7	135
					
266	363	Serena Caira	01 Waltham Track	13:25.7	136
					
267	96	Gabriella Martiniello	01 Granite State Flash	13:25.9	
					
268	994	Julia Barrau	04 Marietta Track Club	13:27.6	137
					
269	1383	Ashlyn Guerrant	07 Carmel Distance Project	13:27.8	138
					
270	1566	Ava Sunbury	07 South Central Indiana Runni	13:27.8	139
					
271	1640	Asta Hildebrand	08 Iowa Speed Track & Field Cl	13:27.9	
					
272	2676	Sydney Chandler	14 Los Gatos	13:28.2	140
					
273	2807	Ellery Manning	14 Truckee Racing Club	13:29.1	
					
274	1416	Kayleigh Austin	07 Columbus Running	13:29.4	141
					
275	641	Amy Schwarz	03 Fit 180 Athletics A	13:30.3	142
					
276	304	Tyla Forbes	01 Rumford Road Runners	13:31.1	143
					
277	3297	Talia Green	Oakland Cubs	13:32.0	
					
278	2319	Leyla Mejia	12 Track Houston Youth Track	13:32.6	144
					
279	2431	Danielle Amacher	13 JC Spirit Multi Event	13:32.7	145
					
280	2768	Kelsey Sutch	14 Oak Hill Racing	13:32.8	
					
281	2725	Marissa Ontiveros	14 McFarland Track	13:33.3	146
					
282	936	Meleah Lockwood	04 Great Strides	13:34.5	147
					
283	1438	Sierra Newell	07 Columbus Running	13:35.3	148
					
284	2308	Tanishka Ganesh	12 Track Houston Youth Track	13:35.7	149
					
285	2806	Kylie Dwyer	14 Truckee Racing Club	13:39.3	
					
286	803	Leelah Dennis	04 Alpha Crush Running Club	13:39.4	
					
287	2189	Paris Strange	12 Family Point Speed	13:39.5	150
					
288	2808	Peyton Rothery	14 Truckee Racing Club	13:44.0	
					
289	1776	Audrey Greene	10 Colorado Coyotes	13:44.3	151
					
290	2805	Liv Casey	14 Truckee Racing Club	13:46.0	
					
291	1603	Taylor Schad	08 20-Unattached	13:47.2	
					
292	1148	Arden Keeter	04 Walton Youth Track	13:49.6	152
					
293	2000	Hailie Bradley	10 Penguin Track	13:49.6	153
					
294	2296	Fanny Louise Skjonberg	12 Team Green Running	13:49.7	
					
295	3257	Madalyn Falk	16 Central Florida Gliders Tra	13:50.6	154
					
296	940	Katherine Stachelczyk	04 Great Strides	13:50.9	155
					
297	2763	Audrey Reimers	14 Oak Hill Racing	13:51.3	
					
298	2085	Abbigail Anderson	11 Race Cats	13:51.7	
					
299	243	Margaret Jennings	01 New York Starz Track	13:52.4	156
					
300	1054	Grace Ward	04 Mt. Pleasant Track	13:52.7	
					
301	2170	Emily Hopkins	12 Family Point Speed	13:53.0	157
					
302	3268	Maria Tejada	16 Central Florida Gliders Tra	13:54.0	158
					
303	2433	Hannah Beck	13 JC Spirit Multi Event	13:55.2	159
					
304	1144	Sophie-Katherine Harvey	04 Walton Youth Track	13:56.4	160
					
305	2846	Baylin Polite	15 Chino Hills Flash	13:57.0	
					
306	2438	Gracee Whiteaker	13 JC Spirit Multi Event	13:57.4	161
					
307	431	Alexandra Gongas	02 Get Fit Families	13:57.8	
					
308	3175	Teagan Finegan	15 Valley United Track Club B	14:01.2	162
					
309	2313	Megan Janger	12 Track Houston Youth Track	14:04.2	163
					
310	935	Katherine Lewis	04 Great Strides	14:05.0	164
					
311	931	Amanda Feeney	04 Great Strides	14:05.4	165
					
312	1728	Katyleigh Davis	09 Southern Oklahoma/Wilson Co	14:09.0	
					
313	1561	Carly Kaiser	07 South Central Indiana Runni	14:11.2	166
					
314	2467	Neala Hart	13 North Idaho Track & Field	14:13.1	167
					
315	2325	Emma Peters	12 Track Houston Youth Track	14:14.0	168
					
316	3181	Kayla Lopez	15 Valley United Track Club B	14:16.6	169
					
317	2328	Lauren Stamper	12 Track Houston Youth Track	14:17.4	170
					
318	1158	Manuela Palma	04 Walton Youth Track	14:19.2	171
					
319	1119	Sophia Allison	04 Walton Youth Track	14:19.4	172
					
320	565	Evelyn Hays	03 Bethesda Track	14:19.9	
					
321	2190	Kristina Thompson	12 Family Point Speed	14:22.6	173
					
322	2724	Cynthia Munguia	14 McFarland Track	14:22.7	174
					
323	1216	Nicole Kaulen	05 Hilliard Track Club	14:24.7	
					
324	2180	Angela Pena	12 Family Point Speed	14:25.3	175
					
325	3199	Cheyenne Tsuang	15 Valley United Track Club B	14:25.9	176
					
326	642	Cameron Walsh	03 Fit 180 Athletics A	14:26.2	
					
327	2164	Patricia Flores	12 Family Point Speed	14:27.1	
					
328	3259	Madalyn King	16 Central Florida Gliders Tra	14:28.9	177
					
329	1554	Gracie Adams	07 South Central Indiana Runni	14:31.2	178
					
330	2007	Olivia Imre	10 Penguin Track	14:31.8	179
					
331	3219	Hana Garey	16 14-Unattached	14:34.8	
					
332	1555	Cheyenne Campbell	07 South Central Indiana Runni	14:36.0	180
					
333	2535	Sophia Barajas	13 Sun City	14:36.3	
					
334	1512	Katherine Constantino	07 Northside Saints	14:39.8	
					
335	2129	Kinnison Harvey	12 26-Unattached	14:41.7	
					
336	474	Vanessa Gleason	02 Lakeland Jr Track & Field L	14:42.2	
					
337	938	Ashley Roman	04 Great Strides	14:44.7	
					
338	1388	Chenyao Liu	07 Carmel Distance Project	14:54.2	181
					
339	1124	Kaia Brooks	04 Walton Youth Track	14:55.7	
					
340	1287	Summer Grillette	06 24-Unattached	14:57.4	
					
341	3296	Sophia Silva	cluUnattached	14:58.1	
					
342	3216	Bella Del Busto	16 14-Unattached	15:00.1	
					
343	1737	Molly McMurtrey	09 Triple Threat Racing	15:00.6	
					
344	1233	Kayla Brainard	05 Team Kentucky Elite	15:02.2	
					
345	1633	Ava Lensch	08 Ankeny Track & Field Club	15:03.6	
					
346	2435	Sophia Motes	13 JC Spirit Multi Event	15:04.6	182
					
347	1960	Ellie Trimble	10 NX Level Track	15:05.3	183
					
348	2255	Emily Rosas	12 Rxc	15:05.5	
					
349	1622	Kyra Fry	08 402 XC and Track	15:06.7	
					
350	3320	Hannan Olave	16 14-Unattached	15:10.1	
					
351	818	Ella Malcom	04 Alpha Crush Running Club	15:14.1	
					
352	2271	Ava Richardson	12 San Antonio Swift Track Clu	15:15.3	
					
353	1298	Caitlyn Ryan	06 24-Unattached	15:16.5	
					
354	995	Charlotte Bullington	04 Marietta Track Club	15:17.4	184
					
355	2551	Mary Mickelson	13 Sun City	15:24.5	
					
356	2280	Madison Caffey	12 SpeedKIDZ Elite	15:27.7	
					
357	3256	Abigail Cupo	16 Central Florida Gliders Tra	15:28.4	185
					
358	1696	Abbey Brackenbury	09 Ejc Track	15:41.0	
					
359	1000	Ella Gardenhire	04 Marietta Track Club	15:43.1	186
					
360	1443	Micah Rutledge	07 Columbus Running	15:47.0	187
					
361	3293	Gia-Marie Tim	16 Pure Athletics	15:49.8	
					
362	1322	Jacelyn Keller	06 Most Blessed Sacrament Cros	15:50.3	
					
363	1610	Jolie Dix	08 29-Unattached	15:59.6	
					
364	2301	Harmonnie Cantu	12 Track Houston Youth Track	16:13.4	
					
365	1664	Elizabeth Chipps	09 23-Unattached	16:14.2	
					
366	2155	Emma Van Horn	12 47-Unattached	16:22.3	
					
367	2432	Simran Basi	13 JC Spirit Multi Event	17:22.1	188
					
368	3240	Liberty Reback	16 14-Unattached	21:19.6	
					
369	1321	Laney Graham	06 Most Blessed Sacrament Cros	23:46.6